sensor_id;sensor_type;location;lat;lon;timestamp;pressure;altitude;pressure_sealevel;temperature;humidity
32330;BME280;18807;52.434;13.238;2022-09-01T00:05:24;101949.97;;;16.62;76.63
32330;BME280;18807;52.434;13.238;2022-09-01T00:12:58;101945.47;;;16.61;76.57
32330;BME280;18807;52.434;13.238;2022-09-01T00:20:34;101945.44;;;16.58;75.13
32330;BME280;18807;52.434;13.238;2022-09-01T00:28:07;101951.72;;;16.57;74.27
32330;BME280;18807;52.434;13.238;2022-09-01T00:35:43;101945.38;;;16.53;74.35
32330;BME280;18807;52.434;13.238;2022-09-01T00:43:20;101939.06;;;16.48;73.20
32330;BME280;18807;52.434;13.238;2022-09-01T00:50:56;101939.91;;;16.46;73.13
32330;BME280;18807;52.434;13.238;2022-09-01T00:58:30;101945.31;;;16.46;72.52
32330;BME280;18807;52.434;13.238;2022-09-01T01:06:07;101939.03;;;16.45;71.57
32330;BME280;18807;52.434;13.238;2022-09-01T01:13:49;101942.53;;;16.41;70.93
32330;BME280;18807;52.434;13.238;2022-09-01T01:21:28;101941.59;;;16.35;70.34
32330;BME280;18807;52.434;13.238;2022-09-01T01:29:27;101941.59;;;16.35;70.16
32330;BME280;18807;52.434;13.238;2022-09-01T01:37:04;101939.69;;;16.29;70.32
32330;BME280;18807;52.434;13.238;2022-09-01T01:44:39;101934.22;;;16.20;69.60
32330;BME280;18807;52.434;13.238;2022-09-01T01:52:14;101926.94;;;16.12;70.35
32330;BME280;18807;52.434;13.238;2022-09-01T01:59:50;101935.91;;;16.11;71.05
32330;BME280;18807;52.434;13.238;2022-09-01T02:07:25;101941.28;;;16.09;72.40
32330;BME280;18807;52.434;13.238;2022-09-01T02:15:06;101942.06;;;15.98;74.45
32330;BME280;18807;52.434;13.238;2022-09-01T02:22:41;101934.84;;;15.98;75.94
32330;BME280;18807;52.434;13.238;2022-09-01T02:30:17;101936.72;;;16.01;77.20
32330;BME280;18807;52.434;13.238;2022-09-01T02:37:51;101932.19;;;15.99;78.24
32330;BME280;18807;52.434;13.238;2022-09-01T02:45:28;101924.03;;;15.95;79.50
32330;BME280;18807;52.434;13.238;2022-09-01T02:53:02;101923.97;;;15.89;80.32
32330;BME280;18807;52.434;13.238;2022-09-01T03:00:42;101912.16;;;15.78;81.44
32330;BME280;18807;52.434;13.238;2022-09-01T03:08:16;101928.25;;;15.70;83.00
32330;BME280;18807;52.434;13.238;2022-09-01T03:15:51;101927.13;;;15.55;85.76
32330;BME280;18807;52.434;13.238;2022-09-01T03:23:25;101928.88;;;15.50;86.57
32330;BME280;18807;52.434;13.238;2022-09-01T03:31:01;101927.84;;;15.42;88.24
32330;BME280;18807;52.434;13.238;2022-09-01T03:38:34;101924.13;;;15.34;89.87
32330;BME280;18807;52.434;13.238;2022-09-01T03:46:09;101927.53;;;15.24;90.93
32330;BME280;18807;52.434;13.238;2022-09-01T03:53:50;101921.09;;;15.13;91.80
32330;BME280;18807;52.434;13.238;2022-09-01T04:01:28;101919.13;;;15.00;93.48
32330;BME280;18807;52.434;13.238;2022-09-01T04:09:04;101914.41;;;14.87;95.45
32330;BME280;18807;52.434;13.238;2022-09-01T04:16:39;101915.94;;;14.70;97.45
32330;BME280;18807;52.434;13.238;2022-09-01T04:24:33;101922.03;;;14.60;98.76
32330;BME280;18807;52.434;13.238;2022-09-01T04:32:09;101920.94;;;14.49;100.00
32330;BME280;18807;52.434;13.238;2022-09-01T04:39:47;101927.94;;;14.41;100.00
32330;BME280;18807;52.434;13.238;2022-09-01T04:47:29;101920.56;;;14.29;100.00
32330;BME280;18807;52.434;13.238;2022-09-01T04:55:09;101924.78;;;14.17;100.00
32330;BME280;18807;52.434;13.238;2022-09-01T05:02:53;101923.59;;;14.02;100.00
32330;BME280;18807;52.434;13.238;2022-09-01T05:10:27;101922.56;;;13.96;100.00
32330;BME280;18807;52.434;13.238;2022-09-01T05:18:03;101929.59;;;13.88;100.00
32330;BME280;18807;52.434;13.238;2022-09-01T05:25:42;101919.72;;;13.87;100.00
32330;BME280;18807;52.434;13.238;2022-09-01T05:33:19;101924.38;;;13.95;100.00
32330;BME280;18807;52.434;13.238;2022-09-01T05:40:57;101920.03;;;14.03;100.00
32330;BME280;18807;52.434;13.238;2022-09-01T05:48:34;101930.09;;;14.14;100.00
32330;BME280;18807;52.434;13.238;2022-09-01T05:56:11;101928.56;;;14.26;100.00
32330;BME280;18807;52.434;13.238;2022-09-01T06:03:48;101927.00;;;14.37;100.00
32330;BME280;18807;52.434;13.238;2022-09-01T06:11:26;101929.00;;;14.49;100.00
32330;BME280;18807;52.434;13.238;2022-09-01T06:19:05;101936.56;;;14.71;100.00
32330;BME280;18807;52.434;13.238;2022-09-01T06:26:39;101943.25;;;14.95;100.00
32330;BME280;18807;52.434;13.238;2022-09-01T06:34:15;101950.63;;;15.07;100.00
32330;BME280;18807;52.434;13.238;2022-09-01T06:41:49;101950.94;;;15.28;96.67
32330;BME280;18807;52.434;13.238;2022-09-01T06:49:26;101948.91;;;15.73;92.11
32330;BME280;18807;52.434;13.238;2022-09-01T06:57:04;101953.41;;;15.72;91.22
32330;BME280;18807;52.434;13.238;2022-09-01T07:05:00;101951.13;;;16.07;86.51
32330;BME280;18807;52.434;13.238;2022-09-01T07:12:35;101958.50;;;16.23;83.80
32330;BME280;18807;52.434;13.238;2022-09-01T07:20:10;101951.75;;;16.58;81.75
32330;BME280;18807;52.434;13.238;2022-09-01T07:28:02;101953.81;;;16.89;76.91
32330;BME280;18807;52.434;13.238;2022-09-01T07:35:39;101955.63;;;16.90;74.50
32330;BME280;18807;52.434;13.238;2022-09-01T07:43:33;101956.72;;;17.13;72.98
32330;BME280;18807;52.434;13.238;2022-09-01T07:51:11;101943.38;;;17.37;71.56
32330;BME280;18807;52.434;13.238;2022-09-01T07:59:05;101955.22;;;17.56;69.08
32330;BME280;18807;52.434;13.238;2022-09-01T08:06:48;101960.84;;;18.01;66.57
32330;BME280;18807;52.434;13.238;2022-09-01T08:14:22;101961.94;;;18.45;64.24
32330;BME280;18807;52.434;13.238;2022-09-01T08:21:57;101965.59;;;18.91;59.99
32330;BME280;18807;52.434;13.238;2022-09-01T08:29:31;101962.88;;;18.98;59.66
32330;BME280;18807;52.434;13.238;2022-09-01T08:37:06;101972.78;;;18.78;59.41
32330;BME280;18807;52.434;13.238;2022-09-01T08:44:40;101965.59;;;19.07;56.07
32330;BME280;18807;52.434;13.238;2022-09-01T08:52:23;101953.47;;;20.41;51.61
32330;BME280;18807;52.434;13.238;2022-09-01T08:59:59;101951.50;;;20.62;51.96
32330;BME280;18807;52.434;13.238;2022-09-01T09:07:54;101948.72;;;20.70;50.59
32330;BME280;18807;52.434;13.238;2022-09-01T09:15:42;101945.19;;;20.63;53.31
32330;BME280;18807;52.434;13.238;2022-09-01T09:23:23;101948.59;;;20.86;53.11
32330;BME280;18807;52.434;13.238;2022-09-01T09:31:24;101950.97;;;21.31;50.93
32330;BME280;18807;52.434;13.238;2022-09-01T09:39:08;101947.63;;;20.93;50.38
32330;BME280;18807;52.434;13.238;2022-09-01T09:46:44;101934.41;;;21.54;49.29
32330;BME280;18807;52.434;13.238;2022-09-01T09:54:23;101932.06;;;21.19;45.98
32330;BME280;18807;52.434;13.238;2022-09-01T10:01:59;101943.38;;;21.62;48.32
32330;BME280;18807;52.434;13.238;2022-09-01T10:09:36;101933.91;;;21.13;48.78
32330;BME280;18807;52.434;13.238;2022-09-01T10:17:13;101935.19;;;20.65;50.22
32330;BME280;18807;52.434;13.238;2022-09-01T10:24:49;101937.22;;;20.36;52.07
32330;BME280;18807;52.434;13.238;2022-09-01T10:32:26;101929.16;;;20.18;52.04
32330;BME280;18807;52.434;13.238;2022-09-01T10:40:19;101920.00;;;20.37;51.67
32330;BME280;18807;52.434;13.238;2022-09-01T10:48:26;101924.63;;;20.26;52.17
32330;BME280;18807;52.434;13.238;2022-09-01T10:56:09;101924.66;;;20.17;51.11
32330;BME280;18807;52.434;13.238;2022-09-01T11:03:56;101920.03;;;20.33;50.35
32330;BME280;18807;52.434;13.238;2022-09-01T11:11:39;101917.28;;;20.36;49.92
32330;BME280;18807;52.434;13.238;2022-09-01T11:19:34;101905.44;;;20.53;49.46
32330;BME280;18807;52.434;13.238;2022-09-01T11:35:27;101912.72;;;20.47;49.39
32330;BME280;18807;52.434;13.238;2022-09-01T11:43:06;101907.31;;;20.42;47.63
32330;BME280;18807;52.434;13.238;2022-09-01T11:50:57;101901.78;;;20.56;48.03
32330;BME280;18807;52.434;13.238;2022-09-01T11:58:34;101910.97;;;20.40;48.39
32330;BME280;18807;52.434;13.238;2022-09-01T12:06:17;101901.91;;;20.36;48.13
32330;BME280;18807;52.434;13.238;2022-09-01T12:14:01;101902.84;;;20.35;48.05
32330;BME280;18807;52.434;13.238;2022-09-01T12:21:42;101900.06;;;20.43;48.51
32330;BME280;18807;52.434;13.238;2022-09-01T12:29:17;101897.34;;;20.47;48.14
32330;BME280;18807;52.434;13.238;2022-09-01T12:37:03;101897.34;;;20.46;46.65
32330;BME280;18807;52.434;13.238;2022-09-01T12:44:47;101887.41;;;20.37;47.29
32330;BME280;18807;52.434;13.238;2022-09-01T12:52:24;101880.19;;;20.38;48.03
32330;BME280;18807;52.434;13.238;2022-09-01T13:00:15;101884.66;;;20.43;49.47
32330;BME280;18807;52.434;13.238;2022-09-01T13:07:53;101878.34;;;20.44;47.06
32330;BME280;18807;52.434;13.238;2022-09-01T13:15:28;101880.09;;;20.53;48.38
32330;BME280;18807;52.434;13.238;2022-09-01T13:23:03;101877.34;;;20.54;48.66
32330;BME280;18807;52.434;13.238;2022-09-01T13:30:39;101869.09;;;20.68;49.33
32330;BME280;18807;52.434;13.238;2022-09-01T13:38:14;101870.72;;;20.87;48.41
32330;BME280;18807;52.434;13.238;2022-09-01T13:45:49;101857.09;;;20.96;48.14
32330;BME280;18807;52.434;13.238;2022-09-01T13:53:23;101847.97;;;21.01;45.46
32330;BME280;18807;52.434;13.238;2022-09-01T14:00:59;101845.16;;;21.10;46.93
32330;BME280;18807;52.434;13.238;2022-09-01T14:08:33;101841.56;;;21.07;46.47
32330;BME280;18807;52.434;13.238;2022-09-01T14:16:10;101836.00;;;21.19;47.50
32330;BME280;18807;52.434;13.238;2022-09-01T14:23:45;101825.81;;;21.39;46.00
32330;BME280;18807;52.434;13.238;2022-09-01T14:31:20;101819.38;;;21.44;47.84
32330;BME280;18807;52.434;13.238;2022-09-01T14:38:54;101819.13;;;21.65;45.83
32330;BME280;18807;52.434;13.238;2022-09-01T14:46:30;101816.78;;;21.35;47.04
32330;BME280;18807;52.434;13.238;2022-09-01T14:54:05;101803.06;;;21.46;46.22
32330;BME280;18807;52.434;13.238;2022-09-01T15:01:41;101801.06;;;21.60;45.27
32330;BME280;18807;52.434;13.238;2022-09-01T15:09:14;101795.53;;;21.64;44.85
32330;BME280;18807;52.434;13.238;2022-09-01T15:16:52;101797.34;;;21.65;44.74
32330;BME280;18807;52.434;13.238;2022-09-01T15:24:26;101801.63;;;21.86;44.36
32330;BME280;18807;52.434;13.238;2022-09-01T15:32:01;101792.78;;;21.67;44.86
32330;BME280;18807;52.434;13.238;2022-09-01T15:39:35;101797.34;;;22.28;45.18
32330;BME280;18807;52.434;13.238;2022-09-01T15:47:11;101781.13;;;21.59;43.20
32330;BME280;18807;52.434;13.238;2022-09-01T15:54:45;101783.56;;;22.37;44.71
32330;BME280;18807;52.434;13.238;2022-09-01T16:02:22;101780.75;;;22.43;42.13
32330;BME280;18807;52.434;13.238;2022-09-01T16:09:59;101778.69;;;22.58;43.60
32330;BME280;18807;52.434;13.238;2022-09-01T16:17:43;101780.88;;;22.35;43.19
32330;BME280;18807;52.434;13.238;2022-09-01T16:25:25;101773.22;;;22.58;44.20
32330;BME280;18807;52.434;13.238;2022-09-01T16:33:03;101773.47;;;22.43;44.83
32330;BME280;18807;52.434;13.238;2022-09-01T16:40:56;101771.50;;;21.98;45.15
32330;BME280;18807;52.434;13.238;2022-09-01T16:48:38;101761.28;;;21.50;46.44
32330;BME280;18807;52.434;13.238;2022-09-01T16:56:23;101766.13;;;21.28;47.15
32330;BME280;18807;52.434;13.238;2022-09-01T17:04:17;101769.22;;;20.97;47.75
32330;BME280;18807;52.434;13.238;2022-09-01T17:12:09;101773.88;;;20.83;48.11
32330;BME280;18807;52.434;13.238;2022-09-01T17:19:46;101763.19;;;20.66;48.59
32330;BME280;18807;52.434;13.238;2022-09-01T17:27:26;101775.16;;;20.46;50.63
32330;BME280;18807;52.434;13.238;2022-09-01T17:35:11;101780.69;;;20.34;51.93
32330;BME280;18807;52.434;13.238;2022-09-01T17:42:48;101785.38;;;20.15;53.26
32330;BME280;18807;52.434;13.238;2022-09-01T17:50:32;101799.06;;;19.91;53.02
32330;BME280;18807;52.434;13.238;2022-09-01T17:58:20;101807.31;;;19.74;53.09
32330;BME280;18807;52.434;13.238;2022-09-01T18:06:02;101808.41;;;19.40;52.51
32330;BME280;18807;52.434;13.238;2022-09-01T18:13:41;101815.66;;;19.31;53.97
32330;BME280;18807;52.434;13.238;2022-09-01T18:21:31;101814.75;;;19.18;54.79
32330;BME280;18807;52.434;13.238;2022-09-01T18:29:07;101828.38;;;19.05;55.29
32330;BME280;18807;52.434;13.238;2022-09-01T18:36:47;101826.56;;;18.92;56.90
32330;BME280;18807;52.434;13.238;2022-09-01T18:44:34;101846.44;;;18.77;56.75
32330;BME280;18807;52.434;13.238;2022-09-01T18:52:21;101846.44;;;18.49;57.61
32330;BME280;18807;52.434;13.238;2022-09-01T19:00:08;101841.91;;;18.31;59.31
32330;BME280;18807;52.434;13.238;2022-09-01T19:07:57;101845.50;;;18.12;61.17
32330;BME280;18807;52.434;13.238;2022-09-01T19:15:39;101848.16;;;17.94;63.63
32330;BME280;18807;52.434;13.238;2022-09-01T19:23:20;101848.13;;;17.80;64.56
32330;BME280;18807;52.434;13.238;2022-09-01T19:31:04;101847.19;;;17.68;65.82
32330;BME280;18807;52.434;13.238;2022-09-01T19:38:41;101850.72;;;17.47;66.89
32330;BME280;18807;52.434;13.238;2022-09-01T19:46:22;101865.00;;;17.36;68.94
32330;BME280;18807;52.434;13.238;2022-09-01T19:54:06;101857.72;;;17.21;70.96
32330;BME280;18807;52.434;13.238;2022-09-01T20:01:45;101863.03;;;17.06;71.53
32330;BME280;18807;52.434;13.238;2022-09-01T20:09:23;101870.16;;;16.89;71.61
32330;BME280;18807;52.434;13.238;2022-09-01T20:17:03;101865.56;;;16.78;72.46
32330;BME280;18807;52.434;13.238;2022-09-01T20:24:38;101861.84;;;16.65;74.22
32330;BME280;18807;52.434;13.238;2022-09-01T20:32:18;101865.38;;;16.54;75.74
32330;BME280;18807;52.434;13.238;2022-09-01T20:40:03;101867.97;;;16.43;76.67
32330;BME280;18807;52.434;13.238;2022-09-01T20:47:38;101876.88;;;16.36;76.93
32330;BME280;18807;52.434;13.238;2022-09-01T20:55:16;101863.28;;;16.27;76.71
32330;BME280;18807;52.434;13.238;2022-09-01T21:02:59;101870.41;;;16.21;76.85
32330;BME280;18807;52.434;13.238;2022-09-01T21:10:43;101863.13;;;16.11;76.76
32330;BME280;18807;52.434;13.238;2022-09-01T21:18:33;101872.03;;;16.02;77.98
32330;BME280;18807;52.434;13.238;2022-09-01T21:26:13;101873.72;;;15.92;78.47
32330;BME280;18807;52.434;13.238;2022-09-01T21:33:47;101868.22;;;15.85;78.39
32330;BME280;18807;52.434;13.238;2022-09-01T21:41:22;101870.84;;;15.79;78.90
32330;BME280;18807;52.434;13.238;2022-09-01T21:48:56;101870.75;;;15.70;79.46
32330;BME280;18807;52.434;13.238;2022-09-01T21:56:31;101876.94;;;15.63;79.04
32330;BME280;18807;52.434;13.238;2022-09-01T22:04:05;101879.66;;;15.63;78.16
32330;BME280;18807;52.434;13.238;2022-09-01T22:11:41;101874.19;;;15.58;78.66
32330;BME280;18807;52.434;13.238;2022-09-01T22:19:15;101866.97;;;15.54;78.92
32330;BME280;18807;52.434;13.238;2022-09-01T22:26:53;101863.34;;;15.52;79.59
32330;BME280;18807;52.434;13.238;2022-09-01T22:34:26;101864.22;;;15.50;80.95
32330;BME280;18807;52.434;13.238;2022-09-01T22:42:02;101856.94;;;15.43;82.08
32330;BME280;18807;52.434;13.238;2022-09-01T22:49:36;101858.59;;;15.33;83.55
32330;BME280;18807;52.434;13.238;2022-09-01T22:57:11;101862.09;;;15.26;84.69
32330;BME280;18807;52.434;13.238;2022-09-01T23:04:44;101861.06;;;15.18;84.92
32330;BME280;18807;52.434;13.238;2022-09-01T23:12:20;101862.78;;;15.13;85.63
32330;BME280;18807;52.434;13.238;2022-09-01T23:19:54;101851.88;;;15.04;87.46
32330;BME280;18807;52.434;13.238;2022-09-01T23:27:29;101855.34;;;14.96;87.97
32330;BME280;18807;52.434;13.238;2022-09-01T23:35:04;101854.41;;;14.91;87.78
32330;BME280;18807;52.434;13.238;2022-09-01T23:42:39;101847.13;;;14.87;87.53
32330;BME280;18807;52.434;13.238;2022-09-01T23:50:13;101847.06;;;14.82;87.42
32330;BME280;18807;52.434;13.238;2022-09-01T23:57:49;101848.81;;;14.77;87.66
